Capitol Logistics 998


FIMP
Sir Seewoosagur Ramgoolam International Airport
Mauritius, MU
VRMM
Malé International Airport
Male, MV

Activity Log

Date Flight Route Aircraft Duration
12/22/2019 CPX998 OSKAR1 OSKAR TAPER G454 GAN R329 ATISA ATIS2B B763 4h 25m
11/18/2019 CPX998 Not Available B763 4h 37m

Route Details

Aircraft Information
Primary: Boeing 767-300BDSF
Backup: Not Available
Route Data
Distance: 1742nm
Sched. Duration: 3h 54m
Avg. Duration: 4h 31m (+76m)
Times Flown: 2
Recm'd Route: Not Available
Planned Altitude: 35,000ft
Origin Wx: FIMP 281200Z 03014KT 2000NW -SHRA FEW006 BKN014 BKN045 26/24 Q1009
Dest. Wx: VRMM 281200Z 05012KT 9999 SCT018 31/23 Q1008 NOSIG
Notes:

Financial History
Total Freight: 167,615lbs
Average Load: 83,808lbs/flt
Fuel Used: 93,344lbs
Avg. Fuel Used: 46,672lbs/flt
Fuel Expense: $69,075
Avg. Fuel Expense: $34,537
Avg. Fuel Cost: $0.74/lbs
Total Gross Income: $1,645,979
Pilot Pay: $468
Total Expenses: $177,870
Total Revenue: $1,397,017
Average Revenue: $822,989.66